This is the latest recevied weather packets stored in our database for station/object OK1VCF-6. If no packets are shown the sender has not sent any weather packets the latest 10 day(s).
| Time | Temp. | Humidity | Pressure | Rain* | Wind** | Luminosity | Snow |
|---|---|---|---|---|---|---|---|
| 1777852663 | 13.33° C | 61% | 1016.3 hPa | - | - | - | - |
| 1777852606 | 13.33° C | 61% | 1016.3 hPa | - | - | - | - |
| 1777850796 | 13.33° C | 60% | 1016.4 hPa | - | - | - | - |
| 1777843580 | 14.44° C | 58% | 1016.9 hPa | - | - | - | - |
| 1777842684 | 14.44° C | 56% | 1016.9 hPa | - | - | - | - |
| 1777833652 | 17.78° C | 48% | 1016.6 hPa | - | - | - | - |
| 1777831851 | 17.78° C | 45% | 1016.4 hPa | - | - | - | - |
| 1777830952 | 18.33° C | 44% | 1016.2 hPa | - | - | - | - |
| 1777830050 | 18.89° C | 43% | 1016 hPa | - | - | - | - |
| 1777820142 | 22.22° C | 38% | 1016.8 hPa | - | - | - | - |
| 1777819241 | 22.22° C | 36% | 1016.8 hPa | - | - | - | - |
| 1777812937 | 21.11° C | 43% | 1018 hPa | - | - | - | - |
| 1777808437 | 20.56° C | 42% | 1018.8 hPa | - | - | - | - |
| 1777806631 | 20° C | 44% | 1019.2 hPa | - | - | - | - |
| 1777803929 | 20° C | 48% | 1019.4 hPa | - | - | - | - |
| 1777800313 | 17.78° C | 48% | 1020 hPa | - | - | - | - |
| 1777792180 | 14.44° C | 54% | 1020.3 hPa | - | - | - | - |
| 1777781360 | 8.33° C | 72% | 1020.2 hPa | - | - | - | - |
| 1777780452 | 8.33° C | 71% | 1020 hPa | - | - | - | - |
| 1777768715 | 10° C | 66% | 1020.5 hPa | - | - | - | - |
| 1777759703 | 11.11° C | 66% | 1021.1 hPa | - | - | - | - |
| 1777755199 | 10.56° C | 62% | 1021.4 hPa | - | - | - | - |
| 1777749787 | 11.11° C | 62% | 1021.6 hPa | - | - | - | - |
| 1777742583 | 20° C | 36% | 1021.4 hPa | - | - | - | - |
| 1777740780 | 22.22° C | 34% | 1021.5 hPa | - | - | - | - |
* Rain since midnight (hover to see other rain measurements)
** Current wind speed in m/s (hover to see current wind gust speed)